sensor_id;sensor_type;location;lat;lon;timestamp;P1;durP1;ratioP1;P2;durP2;ratioP2
77026;SDS011;65956;52.986;17.490;2024-02-21T00:01:50;21.90;;;7.20;;
77026;SDS011;65956;52.986;17.490;2024-02-21T00:04:16;24.60;;;7.70;;
77026;SDS011;65956;52.986;17.490;2024-02-21T00:06:43;16.50;;;6.20;;
77026;SDS011;65956;52.986;17.490;2024-02-21T00:09:09;20.20;;;7.20;;
77026;SDS011;65956;52.986;17.490;2024-02-21T00:11:35;20.50;;;6.90;;
77026;SDS011;65956;52.986;17.490;2024-02-21T00:14:01;24.70;;;7.20;;
77026;SDS011;65956;52.986;17.490;2024-02-21T00:16:27;21.50;;;6.90;;
77026;SDS011;65956;52.986;17.490;2024-02-21T00:18:53;20.40;;;7.20;;
77026;SDS011;65956;52.986;17.490;2024-02-21T00:21:19;25.00;;;7.70;;
77026;SDS011;65956;52.986;17.490;2024-02-21T00:23:45;24.80;;;9.00;;
77026;SDS011;65956;52.986;17.490;2024-02-21T00:26:15;24.40;;;7.80;;
77026;SDS011;65956;52.986;17.490;2024-02-21T00:28:41;27.00;;;8.60;;
77026;SDS011;65956;52.986;17.490;2024-02-21T00:31:07;28.20;;;7.80;;
77026;SDS011;65956;52.986;17.490;2024-02-21T00:33:33;21.60;;;7.40;;
77026;SDS011;65956;52.986;17.490;2024-02-21T00:35:59;26.10;;;7.00;;
77026;SDS011;65956;52.986;17.490;2024-02-21T00:38:25;25.80;;;8.50;;
77026;SDS011;65956;52.986;17.490;2024-02-21T00:40:51;23.50;;;7.40;;
77026;SDS011;65956;52.986;17.490;2024-02-21T00:43:17;26.80;;;8.50;;
77026;SDS011;65956;52.986;17.490;2024-02-21T00:45:43;22.30;;;7.60;;
77026;SDS011;65956;52.986;17.490;2024-02-21T00:48:09;21.80;;;8.90;;
77026;SDS011;65956;52.986;17.490;2024-02-21T00:50:35;22.20;;;7.10;;
77026;SDS011;65956;52.986;17.490;2024-02-21T00:53:03;21.70;;;8.10;;
77026;SDS011;65956;52.986;17.490;2024-02-21T00:55:29;28.60;;;8.00;;
77026;SDS011;65956;52.986;17.490;2024-02-21T00:57:55;22.30;;;7.40;;
77026;SDS011;65956;52.986;17.490;2024-02-21T01:00:24;23.50;;;7.50;;
77026;SDS011;65956;52.986;17.490;2024-02-21T01:02:50;25.00;;;8.30;;
77026;SDS011;65956;52.986;17.490;2024-02-21T01:05:16;20.90;;;5.80;;
77026;SDS011;65956;52.986;17.490;2024-02-21T01:07:42;21.40;;;6.80;;
77026;SDS011;65956;52.986;17.490;2024-02-21T01:10:08;24.60;;;6.00;;
77026;SDS011;65956;52.986;17.490;2024-02-21T01:12:35;22.60;;;6.50;;
77026;SDS011;65956;52.986;17.490;2024-02-21T01:15:01;23.90;;;6.00;;
77026;SDS011;65956;52.986;17.490;2024-02-21T01:17:27;22.60;;;6.30;;
77026;SDS011;65956;52.986;17.490;2024-02-21T01:19:53;24.90;;;6.50;;
77026;SDS011;65956;52.986;17.490;2024-02-21T01:22:19;20.80;;;6.00;;
77026;SDS011;65956;52.986;17.490;2024-02-21T01:24:45;24.60;;;6.60;;
77026;SDS011;65956;52.986;17.490;2024-02-21T01:27:11;26.00;;;7.20;;
77026;SDS011;65956;52.986;17.490;2024-02-21T01:29:37;21.20;;;6.70;;
77026;SDS011;65956;52.986;17.490;2024-02-21T01:32:04;21.60;;;7.00;;
77026;SDS011;65956;52.986;17.490;2024-02-21T01:34:30;26.80;;;7.40;;
77026;SDS011;65956;52.986;17.490;2024-02-21T01:36:56;22.30;;;6.80;;
77026;SDS011;65956;52.986;17.490;2024-02-21T01:39:22;23.20;;;6.80;;
77026;SDS011;65956;52.986;17.490;2024-02-21T01:41:48;23.80;;;6.80;;
77026;SDS011;65956;52.986;17.490;2024-02-21T01:44:14;25.40;;;7.00;;
77026;SDS011;65956;52.986;17.490;2024-02-21T01:46:40;24.90;;;6.70;;
77026;SDS011;65956;52.986;17.490;2024-02-21T01:49:07;24.30;;;6.70;;
77026;SDS011;65956;52.986;17.490;2024-02-21T01:51:33;20.10;;;6.20;;
77026;SDS011;65956;52.986;17.490;2024-02-21T01:54:00;24.40;;;6.30;;
77026;SDS011;65956;52.986;17.490;2024-02-21T01:56:26;26.30;;;6.70;;
77026;SDS011;65956;52.986;17.490;2024-02-21T01:58:53;21.20;;;6.50;;
77026;SDS011;65956;52.986;17.490;2024-02-21T02:01:21;19.70;;;6.00;;
77026;SDS011;65956;52.986;17.490;2024-02-21T02:03:47;22.70;;;6.90;;
77026;SDS011;65956;52.986;17.490;2024-02-21T02:06:15;21.10;;;6.10;;
77026;SDS011;65956;52.986;17.490;2024-02-21T02:08:41;24.90;;;7.10;;
77026;SDS011;65956;52.986;17.490;2024-02-21T02:11:07;22.10;;;6.60;;
77026;SDS011;65956;52.986;17.490;2024-02-21T02:13:34;20.10;;;6.20;;
77026;SDS011;65956;52.986;17.490;2024-02-21T02:16:00;22.10;;;6.60;;
77026;SDS011;65956;52.986;17.490;2024-02-21T02:18:26;21.00;;;6.10;;
77026;SDS011;65956;52.986;17.490;2024-02-21T02:20:52;22.00;;;5.90;;
77026;SDS011;65956;52.986;17.490;2024-02-21T02:23:23;24.40;;;6.90;;
77026;SDS011;65956;52.986;17.490;2024-02-21T02:25:57;26.10;;;6.80;;
77026;SDS011;65956;52.986;17.490;2024-02-21T02:28:24;23.70;;;6.40;;
77026;SDS011;65956;52.986;17.490;2024-02-21T02:30:50;21.60;;;6.00;;
77026;SDS011;65956;52.986;17.490;2024-02-21T02:33:16;22.30;;;7.10;;
77026;SDS011;65956;52.986;17.490;2024-02-21T02:35:46;24.70;;;6.70;;
77026;SDS011;65956;52.986;17.490;2024-02-21T02:38:12;29.20;;;7.20;;
77026;SDS011;65956;52.986;17.490;2024-02-21T02:40:39;20.00;;;6.60;;
77026;SDS011;65956;52.986;17.490;2024-02-21T02:43:06;24.50;;;6.50;;
77026;SDS011;65956;52.986;17.490;2024-02-21T02:45:32;22.10;;;5.70;;
77026;SDS011;65956;52.986;17.490;2024-02-21T02:47:59;21.30;;;6.90;;
77026;SDS011;65956;52.986;17.490;2024-02-21T02:50:26;24.10;;;6.70;;
77026;SDS011;65956;52.986;17.490;2024-02-21T02:52:53;15.30;;;5.80;;
77026;SDS011;65956;52.986;17.490;2024-02-21T02:55:19;18.00;;;6.00;;
77026;SDS011;65956;52.986;17.490;2024-02-21T02:57:46;28.10;;;6.50;;
77026;SDS011;65956;52.986;17.490;2024-02-21T03:00:13;22.50;;;6.20;;
77026;SDS011;65956;52.986;17.490;2024-02-21T03:02:41;29.40;;;7.00;;
77026;SDS011;65956;52.986;17.490;2024-02-21T03:05:14;18.40;;;6.20;;
77026;SDS011;65956;52.986;17.490;2024-02-21T03:07:42;26.10;;;7.00;;
77026;SDS011;65956;52.986;17.490;2024-02-21T03:10:09;23.00;;;6.90;;
77026;SDS011;65956;52.986;17.490;2024-02-21T03:12:36;20.30;;;6.40;;
77026;SDS011;65956;52.986;17.490;2024-02-21T03:15:03;26.00;;;7.30;;
77026;SDS011;65956;52.986;17.490;2024-02-21T03:17:31;24.30;;;8.00;;
77026;SDS011;65956;52.986;17.490;2024-02-21T03:19:58;20.60;;;7.20;;
77026;SDS011;65956;52.986;17.490;2024-02-21T03:22:27;20.90;;;7.60;;
77026;SDS011;65956;52.986;17.490;2024-02-21T03:24:53;25.00;;;8.10;;
77026;SDS011;65956;52.986;17.490;2024-02-21T03:27:19;24.20;;;7.40;;
77026;SDS011;65956;52.986;17.490;2024-02-21T03:29:45;21.70;;;7.30;;
77026;SDS011;65956;52.986;17.490;2024-02-21T03:32:11;29.70;;;8.40;;
77026;SDS011;65956;52.986;17.490;2024-02-21T03:34:37;21.30;;;7.50;;
77026;SDS011;65956;52.986;17.490;2024-02-21T03:37:03;23.10;;;7.90;;
77026;SDS011;65956;52.986;17.490;2024-02-21T03:39:32;23.40;;;7.10;;
77026;SDS011;65956;52.986;17.490;2024-02-21T03:41:59;25.70;;;8.30;;
77026;SDS011;65956;52.986;17.490;2024-02-21T03:44:30;22.30;;;7.40;;
77026;SDS011;65956;52.986;17.490;2024-02-21T03:46:58;20.90;;;7.60;;
77026;SDS011;65956;52.986;17.490;2024-02-21T03:49:25;21.70;;;7.80;;
77026;SDS011;65956;52.986;17.490;2024-02-21T03:51:51;20.60;;;7.00;;
77026;SDS011;65956;52.986;17.490;2024-02-21T03:54:18;26.80;;;9.20;;
77026;SDS011;65956;52.986;17.490;2024-02-21T03:56:45;21.50;;;7.70;;
77026;SDS011;65956;52.986;17.490;2024-02-21T03:59:13;24.10;;;8.20;;
77026;SDS011;65956;52.986;17.490;2024-02-21T04:01:39;23.30;;;8.10;;
77026;SDS011;65956;52.986;17.490;2024-02-21T04:04:05;22.90;;;7.40;;
77026;SDS011;65956;52.986;17.490;2024-02-21T04:06:32;20.40;;;7.40;;
77026;SDS011;65956;52.986;17.490;2024-02-21T04:08:58;27.50;;;8.20;;
77026;SDS011;65956;52.986;17.490;2024-02-21T04:11:24;23.50;;;7.60;;
77026;SDS011;65956;52.986;17.490;2024-02-21T04:13:50;26.30;;;6.80;;
77026;SDS011;65956;52.986;17.490;2024-02-21T04:16:17;26.60;;;7.50;;
77026;SDS011;65956;52.986;17.490;2024-02-21T04:18:44;22.50;;;7.40;;
77026;SDS011;65956;52.986;17.490;2024-02-21T04:21:10;23.10;;;7.00;;
77026;SDS011;65956;52.986;17.490;2024-02-21T04:23:36;22.10;;;7.00;;
77026;SDS011;65956;52.986;17.490;2024-02-21T04:26:02;22.10;;;7.60;;
77026;SDS011;65956;52.986;17.490;2024-02-21T04:28:28;21.90;;;7.20;;
77026;SDS011;65956;52.986;17.490;2024-02-21T04:30:54;25.00;;;7.70;;
77026;SDS011;65956;52.986;17.490;2024-02-21T04:33:20;21.70;;;7.80;;
77026;SDS011;65956;52.986;17.490;2024-02-21T04:35:46;20.00;;;7.00;;
77026;SDS011;65956;52.986;17.490;2024-02-21T04:38:13;24.60;;;7.70;;
77026;SDS011;65956;52.986;17.490;2024-02-21T04:40:40;20.20;;;7.30;;
77026;SDS011;65956;52.986;17.490;2024-02-21T04:43:06;20.90;;;6.90;;
77026;SDS011;65956;52.986;17.490;2024-02-21T04:45:32;16.80;;;7.00;;
77026;SDS011;65956;52.986;17.490;2024-02-21T04:47:58;22.20;;;7.30;;
77026;SDS011;65956;52.986;17.490;2024-02-21T04:50:25;22.80;;;8.20;;
77026;SDS011;65956;52.986;17.490;2024-02-21T04:52:51;25.90;;;7.90;;
77026;SDS011;65956;52.986;17.490;2024-02-21T04:55:17;25.80;;;8.90;;
77026;SDS011;65956;52.986;17.490;2024-02-21T04:57:43;26.10;;;8.00;;
77026;SDS011;65956;52.986;17.490;2024-02-21T05:00:09;27.20;;;7.60;;
77026;SDS011;65956;52.986;17.490;2024-02-21T05:02:36;23.20;;;8.50;;
77026;SDS011;65956;52.986;17.490;2024-02-21T05:05:02;24.20;;;8.90;;
77026;SDS011;65956;52.986;17.490;2024-02-21T05:07:29;27.70;;;9.60;;
77026;SDS011;65956;52.986;17.490;2024-02-21T05:09:55;28.60;;;8.90;;
77026;SDS011;65956;52.986;17.490;2024-02-21T05:12:21;26.00;;;8.50;;
77026;SDS011;65956;52.986;17.490;2024-02-21T05:14:47;30.90;;;9.30;;
77026;SDS011;65956;52.986;17.490;2024-02-21T05:17:13;26.30;;;9.20;;
77026;SDS011;65956;52.986;17.490;2024-02-21T05:19:40;24.50;;;9.20;;
77026;SDS011;65956;52.986;17.490;2024-02-21T05:22:06;28.20;;;10.00;;
77026;SDS011;65956;52.986;17.490;2024-02-21T05:24:33;30.70;;;10.10;;
77026;SDS011;65956;52.986;17.490;2024-02-21T05:26:59;34.10;;;9.90;;
77026;SDS011;65956;52.986;17.490;2024-02-21T05:29:25;32.00;;;10.30;;
77026;SDS011;65956;52.986;17.490;2024-02-21T05:34:17;27.70;;;9.70;;
77026;SDS011;65956;52.986;17.490;2024-02-21T05:36:44;23.60;;;10.30;;
77026;SDS011;65956;52.986;17.490;2024-02-21T05:39:10;28.70;;;9.20;;
77026;SDS011;65956;52.986;17.490;2024-02-21T05:41:36;24.90;;;9.30;;
77026;SDS011;65956;52.986;17.490;2024-02-21T05:44:02;24.40;;;8.70;;
77026;SDS011;65956;52.986;17.490;2024-02-21T05:46:29;29.70;;;9.60;;
77026;SDS011;65956;52.986;17.490;2024-02-21T05:48:55;27.00;;;10.00;;
77026;SDS011;65956;52.986;17.490;2024-02-21T05:51:21;28.20;;;9.40;;
77026;SDS011;65956;52.986;17.490;2024-02-21T05:53:47;23.30;;;8.50;;
77026;SDS011;65956;52.986;17.490;2024-02-21T05:56:13;24.80;;;9.20;;
77026;SDS011;65956;52.986;17.490;2024-02-21T05:58:40;29.10;;;9.80;;
77026;SDS011;65956;52.986;17.490;2024-02-21T06:01:07;25.40;;;9.30;;
77026;SDS011;65956;52.986;17.490;2024-02-21T06:03:33;24.50;;;9.00;;
77026;SDS011;65956;52.986;17.490;2024-02-21T06:06:00;27.40;;;9.70;;
77026;SDS011;65956;52.986;17.490;2024-02-21T06:08:26;29.10;;;10.00;;
77026;SDS011;65956;52.986;17.490;2024-02-21T06:10:52;28.10;;;9.80;;
77026;SDS011;65956;52.986;17.490;2024-02-21T06:13:20;27.60;;;9.80;;
77026;SDS011;65956;52.986;17.490;2024-02-21T06:15:47;27.10;;;9.50;;
77026;SDS011;65956;52.986;17.490;2024-02-21T06:18:13;27.10;;;9.40;;
77026;SDS011;65956;52.986;17.490;2024-02-21T06:20:39;23.40;;;8.10;;
77026;SDS011;65956;52.986;17.490;2024-02-21T06:23:06;21.00;;;8.60;;
77026;SDS011;65956;52.986;17.490;2024-02-21T06:25:34;26.80;;;9.20;;
77026;SDS011;65956;52.986;17.490;2024-02-21T06:28:00;24.30;;;9.10;;
77026;SDS011;65956;52.986;17.490;2024-02-21T06:30:26;23.70;;;8.40;;
77026;SDS011;65956;52.986;17.490;2024-02-21T06:32:53;23.80;;;8.20;;
77026;SDS011;65956;52.986;17.490;2024-02-21T06:35:22;20.40;;;8.10;;
77026;SDS011;65956;52.986;17.490;2024-02-21T06:37:50;25.50;;;8.90;;
77026;SDS011;65956;52.986;17.490;2024-02-21T06:40:17;23.40;;;8.30;;
77026;SDS011;65956;52.986;17.490;2024-02-21T06:42:46;22.40;;;8.90;;
77026;SDS011;65956;52.986;17.490;2024-02-21T06:45:13;22.50;;;8.70;;
77026;SDS011;65956;52.986;17.490;2024-02-21T06:47:39;22.80;;;8.10;;
77026;SDS011;65956;52.986;17.490;2024-02-21T06:50:05;23.50;;;8.70;;
77026;SDS011;65956;52.986;17.490;2024-02-21T06:52:31;21.00;;;8.30;;
77026;SDS011;65956;52.986;17.490;2024-02-21T06:54:57;25.50;;;7.90;;
77026;SDS011;65956;52.986;17.490;2024-02-21T06:57:24;17.60;;;7.50;;
77026;SDS011;65956;52.986;17.490;2024-02-21T06:59:50;22.10;;;7.50;;
77026;SDS011;65956;52.986;17.490;2024-02-21T07:02:16;22.80;;;8.00;;
77026;SDS011;65956;52.986;17.490;2024-02-21T07:04:42;19.50;;;7.00;;
77026;SDS011;65956;52.986;17.490;2024-02-21T07:07:09;21.20;;;8.40;;
77026;SDS011;65956;52.986;17.490;2024-02-21T07:09:35;22.60;;;7.60;;
77026;SDS011;65956;52.986;17.490;2024-02-21T07:12:01;17.80;;;8.30;;
77026;SDS011;65956;52.986;17.490;2024-02-21T07:14:29;21.60;;;7.90;;
77026;SDS011;65956;52.986;17.490;2024-02-21T07:16:55;23.90;;;7.90;;
77026;SDS011;65956;52.986;17.490;2024-02-21T07:19:23;23.20;;;7.50;;
77026;SDS011;65956;52.986;17.490;2024-02-21T07:21:49;22.50;;;7.60;;
77026;SDS011;65956;52.986;17.490;2024-02-21T07:24:15;21.30;;;8.00;;
77026;SDS011;65956;52.986;17.490;2024-02-21T07:26:41;21.70;;;7.90;;
77026;SDS011;65956;52.986;17.490;2024-02-21T07:29:09;20.00;;;7.80;;
77026;SDS011;65956;52.986;17.490;2024-02-21T07:31:38;24.00;;;7.70;;
77026;SDS011;65956;52.986;17.490;2024-02-21T07:34:06;23.80;;;7.90;;
77026;SDS011;65956;52.986;17.490;2024-02-21T07:36:33;23.40;;;7.90;;
77026;SDS011;65956;52.986;17.490;2024-02-21T07:38:59;23.00;;;8.00;;
77026;SDS011;65956;52.986;17.490;2024-02-21T07:41:25;17.80;;;7.20;;
77026;SDS011;65956;52.986;17.490;2024-02-21T07:43:52;25.30;;;8.40;;
77026;SDS011;65956;52.986;17.490;2024-02-21T07:46:18;23.60;;;8.00;;
77026;SDS011;65956;52.986;17.490;2024-02-21T07:48:48;20.70;;;8.10;;
77026;SDS011;65956;52.986;17.490;2024-02-21T07:51:14;22.00;;;7.70;;
77026;SDS011;65956;52.986;17.490;2024-02-21T07:53:44;20.90;;;7.90;;
77026;SDS011;65956;52.986;17.490;2024-02-21T07:56:14;25.10;;;7.60;;
77026;SDS011;65956;52.986;17.490;2024-02-21T07:58:41;22.00;;;8.40;;
77026;SDS011;65956;52.986;17.490;2024-02-21T08:01:08;23.60;;;8.50;;
77026;SDS011;65956;52.986;17.490;2024-02-21T08:03:34;22.90;;;7.20;;
77026;SDS011;65956;52.986;17.490;2024-02-21T08:06:01;17.10;;;7.50;;
77026;SDS011;65956;52.986;17.490;2024-02-21T08:08:28;17.90;;;6.90;;
77026;SDS011;65956;52.986;17.490;2024-02-21T08:10:54;16.40;;;7.30;;
77026;SDS011;65956;52.986;17.490;2024-02-21T08:13:20;22.10;;;7.50;;
77026;SDS011;65956;52.986;17.490;2024-02-21T08:15:46;17.80;;;7.50;;
77026;SDS011;65956;52.986;17.490;2024-02-21T08:18:12;19.40;;;7.90;;
77026;SDS011;65956;52.986;17.490;2024-02-21T08:20:42;16.10;;;7.10;;
77026;SDS011;65956;52.986;17.490;2024-02-21T08:23:08;21.00;;;7.40;;
77026;SDS011;65956;52.986;17.490;2024-02-21T08:25:34;21.90;;;7.70;;
77026;SDS011;65956;52.986;17.490;2024-02-21T08:28:00;20.60;;;7.90;;
77026;SDS011;65956;52.986;17.490;2024-02-21T08:30:26;28.30;;;11.60;;
77026;SDS011;65956;52.986;17.490;2024-02-21T08:32:53;16.90;;;8.00;;
77026;SDS011;65956;52.986;17.490;2024-02-21T08:35:22;24.60;;;9.90;;
77026;SDS011;65956;52.986;17.490;2024-02-21T08:37:48;20.30;;;8.20;;
77026;SDS011;65956;52.986;17.490;2024-02-21T08:40:14;20.50;;;8.40;;
77026;SDS011;65956;52.986;17.490;2024-02-21T08:42:43;24.60;;;12.10;;
77026;SDS011;65956;52.986;17.490;2024-02-21T08:45:10;21.50;;;10.80;;
77026;SDS011;65956;52.986;17.490;2024-02-21T08:47:36;109.40;;;51.80;;
77026;SDS011;65956;52.986;17.490;2024-02-21T08:50:05;82.90;;;53.20;;
77026;SDS011;65956;52.986;17.490;2024-02-21T08:52:32;187.50;;;104.40;;
77026;SDS011;65956;52.986;17.490;2024-02-21T08:54:58;155.40;;;84.90;;
77026;SDS011;65956;52.986;17.490;2024-02-21T08:57:24;227.20;;;140.60;;
77026;SDS011;65956;52.986;17.490;2024-02-21T08:59:51;93.70;;;62.40;;
77026;SDS011;65956;52.986;17.490;2024-02-21T09:02:17;110.80;;;83.10;;
77026;SDS011;65956;52.986;17.490;2024-02-21T09:04:43;63.70;;;56.80;;
77026;SDS011;65956;52.986;17.490;2024-02-21T09:07:12;41.10;;;28.30;;
77026;SDS011;65956;52.986;17.490;2024-02-21T09:09:38;34.50;;;19.30;;
77026;SDS011;65956;52.986;17.490;2024-02-21T09:12:08;31.20;;;16.50;;
77026;SDS011;65956;52.986;17.490;2024-02-21T09:14:36;26.70;;;13.40;;
77026;SDS011;65956;52.986;17.490;2024-02-21T09:17:06;23.70;;;11.90;;
77026;SDS011;65956;52.986;17.490;2024-02-21T09:19:32;22.90;;;9.90;;
77026;SDS011;65956;52.986;17.490;2024-02-21T09:21:59;21.30;;;9.40;;
77026;SDS011;65956;52.986;17.490;2024-02-21T09:24:25;20.60;;;9.40;;
77026;SDS011;65956;52.986;17.490;2024-02-21T09:26:51;23.30;;;9.00;;
77026;SDS011;65956;52.986;17.490;2024-02-21T09:29:17;31.90;;;17.10;;
77026;SDS011;65956;52.986;17.490;2024-02-21T09:31:44;24.40;;;12.20;;
77026;SDS011;65956;52.986;17.490;2024-02-21T09:34:10;20.60;;;9.60;;
77026;SDS011;65956;52.986;17.490;2024-02-21T09:36:36;18.30;;;9.40;;
77026;SDS011;65956;52.986;17.490;2024-02-21T09:39:02;23.90;;;12.50;;
77026;SDS011;65956;52.986;17.490;2024-02-21T09:41:29;20.40;;;10.20;;
77026;SDS011;65956;52.986;17.490;2024-02-21T09:43:55;23.20;;;10.70;;
77026;SDS011;65956;52.986;17.490;2024-02-21T09:46:24;19.80;;;10.60;;
77026;SDS011;65956;52.986;17.490;2024-02-21T09:49:20;21.90;;;11.20;;
77026;SDS011;65956;52.986;17.490;2024-02-21T09:51:55;20.70;;;9.60;;
77026;SDS011;65956;52.986;17.490;2024-02-21T09:54:27;21.40;;;10.00;;
77026;SDS011;65956;52.986;17.490;2024-02-21T09:56:55;21.30;;;10.30;;
77026;SDS011;65956;52.986;17.490;2024-02-21T09:59:22;21.70;;;11.70;;
77026;SDS011;65956;52.986;17.490;2024-02-21T10:01:49;20.50;;;10.80;;
77026;SDS011;65956;52.986;17.490;2024-02-21T10:04:16;21.80;;;10.50;;
77026;SDS011;65956;52.986;17.490;2024-02-21T10:06:44;23.90;;;11.50;;
77026;SDS011;65956;52.986;17.490;2024-02-21T10:09:19;25.60;;;11.60;;
77026;SDS011;65956;52.986;17.490;2024-02-21T10:11:50;20.20;;;10.70;;
77026;SDS011;65956;52.986;17.490;2024-02-21T10:14:17;25.10;;;11.50;;
77026;SDS011;65956;52.986;17.490;2024-02-21T10:16:45;25.10;;;10.80;;
77026;SDS011;65956;52.986;17.490;2024-02-21T10:19:19;21.00;;;11.10;;
77026;SDS011;65956;52.986;17.490;2024-02-21T10:24:27;21.50;;;11.10;;
77026;SDS011;65956;52.986;17.490;2024-02-21T10:26:58;21.90;;;11.10;;
77026;SDS011;65956;52.986;17.490;2024-02-21T10:29:34;21.50;;;11.90;;
77026;SDS011;65956;52.986;17.490;2024-02-21T10:32:05;21.20;;;10.50;;
77026;SDS011;65956;52.986;17.490;2024-02-21T10:34:36;23.00;;;10.60;;
77026;SDS011;65956;52.986;17.490;2024-02-21T10:37:04;22.40;;;10.10;;
77026;SDS011;65956;52.986;17.490;2024-02-21T10:39:31;22.80;;;10.90;;
77026;SDS011;65956;52.986;17.490;2024-02-21T10:41:59;22.20;;;9.80;;
77026;SDS011;65956;52.986;17.490;2024-02-21T10:44:30;18.90;;;9.40;;
77026;SDS011;65956;52.986;17.490;2024-02-21T10:46:57;23.10;;;10.40;;
77026;SDS011;65956;52.986;17.490;2024-02-21T10:49:25;19.00;;;11.10;;
77026;SDS011;65956;52.986;17.490;2024-02-21T10:57:00;17.70;;;9.60;;
77026;SDS011;65956;52.986;17.490;2024-02-21T10:59:28;16.70;;;9.00;;
77026;SDS011;65956;52.986;17.490;2024-02-21T11:01:56;18.30;;;9.60;;
77026;SDS011;65956;52.986;17.490;2024-02-21T11:04:22;17.80;;;9.30;;
77026;SDS011;65956;52.986;17.490;2024-02-21T11:06:48;16.70;;;8.80;;
77026;SDS011;65956;52.986;17.490;2024-02-21T11:09:15;17.90;;;10.20;;
77026;SDS011;65956;52.986;17.490;2024-02-21T11:11:43;23.50;;;12.20;;
77026;SDS011;65956;52.986;17.490;2024-02-21T11:14:11;22.30;;;11.30;;
77026;SDS011;65956;52.986;17.490;2024-02-21T11:16:43;18.60;;;10.50;;
77026;SDS011;65956;52.986;17.490;2024-02-21T11:19:18;19.60;;;11.50;;
77026;SDS011;65956;52.986;17.490;2024-02-21T11:21:49;16.10;;;10.40;;
77026;SDS011;65956;52.986;17.490;2024-02-21T11:24:26;23.00;;;14.70;;
77026;SDS011;65956;52.986;17.490;2024-02-21T11:27:09;18.70;;;11.30;;
77026;SDS011;65956;52.986;17.490;2024-02-21T11:32:11;22.90;;;13.60;;
77026;SDS011;65956;52.986;17.490;2024-02-21T11:34:41;22.80;;;13.80;;
77026;SDS011;65956;52.986;17.490;2024-02-21T11:37:14;19.50;;;12.10;;
77026;SDS011;65956;52.986;17.490;2024-02-21T11:39:43;17.70;;;11.20;;
77026;SDS011;65956;52.986;17.490;2024-02-21T11:42:09;21.80;;;12.70;;
77026;SDS011;65956;52.986;17.490;2024-02-21T11:44:36;26.80;;;15.70;;
77026;SDS011;65956;52.986;17.490;2024-02-21T11:47:08;23.50;;;13.50;;
77026;SDS011;65956;52.986;17.490;2024-02-21T11:49:38;32.30;;;17.30;;
77026;SDS011;65956;52.986;17.490;2024-02-21T11:52:09;23.30;;;11.70;;
77026;SDS011;65956;52.986;17.490;2024-02-21T11:54:35;19.50;;;10.20;;
77026;SDS011;65956;52.986;17.490;2024-02-21T11:57:01;17.90;;;10.10;;
77026;SDS011;65956;52.986;17.490;2024-02-21T11:59:30;22.50;;;11.90;;
77026;SDS011;65956;52.986;17.490;2024-02-21T12:01:58;24.30;;;12.10;;
77026;SDS011;65956;52.986;17.490;2024-02-21T12:04:29;29.40;;;15.00;;
77026;SDS011;65956;52.986;17.490;2024-02-21T12:06:57;28.80;;;15.20;;
77026;SDS011;65956;52.986;17.490;2024-02-21T12:09:24;20.70;;;11.80;;
77026;SDS011;65956;52.986;17.490;2024-02-21T12:12:01;27.70;;;15.30;;
77026;SDS011;65956;52.986;17.490;2024-02-21T12:14:31;20.60;;;11.20;;
77026;SDS011;65956;52.986;17.490;2024-02-21T12:16:59;20.30;;;11.30;;
77026;SDS011;65956;52.986;17.490;2024-02-21T12:19:30;19.60;;;10.30;;
77026;SDS011;65956;52.986;17.490;2024-02-21T12:21:58;26.50;;;13.10;;
77026;SDS011;65956;52.986;17.490;2024-02-21T12:24:25;53.60;;;27.90;;
77026;SDS011;65956;52.986;17.490;2024-02-21T12:26:53;43.60;;;23.30;;
77026;SDS011;65956;52.986;17.490;2024-02-21T12:29:20;32.10;;;17.60;;
77026;SDS011;65956;52.986;17.490;2024-02-21T12:31:47;25.50;;;14.20;;
77026;SDS011;65956;52.986;17.490;2024-02-21T12:34:14;23.70;;;11.60;;
77026;SDS011;65956;52.986;17.490;2024-02-21T12:36:44;34.40;;;15.50;;
77026;SDS011;65956;52.986;17.490;2024-02-21T12:39:13;39.70;;;23.30;;
77026;SDS011;65956;52.986;17.490;2024-02-21T12:41:39;20.50;;;12.60;;
77026;SDS011;65956;52.986;17.490;2024-02-21T12:44:07;21.80;;;11.40;;
77026;SDS011;65956;52.986;17.490;2024-02-21T12:46:34;22.90;;;12.90;;
77026;SDS011;65956;52.986;17.490;2024-02-21T12:49:01;29.40;;;15.90;;
77026;SDS011;65956;52.986;17.490;2024-02-21T12:51:29;44.40;;;22.80;;
77026;SDS011;65956;52.986;17.490;2024-02-21T12:53:56;61.60;;;31.60;;
77026;SDS011;65956;52.986;17.490;2024-02-21T12:56:22;63.70;;;32.50;;
77026;SDS011;65956;52.986;17.490;2024-02-21T12:58:50;49.00;;;23.50;;
77026;SDS011;65956;52.986;17.490;2024-02-21T13:01:16;40.90;;;24.10;;
77026;SDS011;65956;52.986;17.490;2024-02-21T13:03:42;53.00;;;24.50;;
77026;SDS011;65956;52.986;17.490;2024-02-21T13:06:09;76.50;;;33.40;;
77026;SDS011;65956;52.986;17.490;2024-02-21T13:08:38;72.90;;;34.40;;
77026;SDS011;65956;52.986;17.490;2024-02-21T13:11:04;43.40;;;24.50;;
77026;SDS011;65956;52.986;17.490;2024-02-21T13:13:31;41.10;;;20.70;;
77026;SDS011;65956;52.986;17.490;2024-02-21T13:15:58;55.30;;;27.40;;
77026;SDS011;65956;52.986;17.490;2024-02-21T13:18:25;56.70;;;29.80;;
77026;SDS011;65956;52.986;17.490;2024-02-21T13:20:51;42.50;;;24.00;;
77026;SDS011;65956;52.986;17.490;2024-02-21T13:23:17;33.30;;;17.00;;
77026;SDS011;65956;52.986;17.490;2024-02-21T13:25:47;30.90;;;17.60;;
77026;SDS011;65956;52.986;17.490;2024-02-21T13:28:13;53.80;;;27.10;;
77026;SDS011;65956;52.986;17.490;2024-02-21T13:30:42;50.50;;;24.80;;
77026;SDS011;65956;52.986;17.490;2024-02-21T13:33:09;45.00;;;24.30;;
77026;SDS011;65956;52.986;17.490;2024-02-21T13:35:35;56.00;;;30.30;;
77026;SDS011;65956;52.986;17.490;2024-02-21T13:38:02;36.40;;;20.00;;
77026;SDS011;65956;52.986;17.490;2024-02-21T13:40:29;46.40;;;24.50;;
77026;SDS011;65956;52.986;17.490;2024-02-21T21:10:32;21.20;;;11.80;;
77026;SDS011;65956;52.986;17.490;2024-02-21T21:12:58;20.00;;;11.40;;
77026;SDS011;65956;52.986;17.490;2024-02-21T21:15:26;20.20;;;10.80;;
77026;SDS011;65956;52.986;17.490;2024-02-21T21:17:55;19.70;;;10.40;;
77026;SDS011;65956;52.986;17.490;2024-02-21T21:20:22;20.50;;;10.60;;
77026;SDS011;65956;52.986;17.490;2024-02-21T21:22:52;18.10;;;11.00;;
77026;SDS011;65956;52.986;17.490;2024-02-21T21:25:18;20.20;;;10.40;;
77026;SDS011;65956;52.986;17.490;2024-02-21T21:27:45;20.30;;;11.20;;
77026;SDS011;65956;52.986;17.490;2024-02-21T21:30:12;17.90;;;10.40;;
77026;SDS011;65956;52.986;17.490;2024-02-21T21:32:40;20.00;;;10.40;;
77026;SDS011;65956;52.986;17.490;2024-02-21T21:35:07;22.70;;;12.40;;
77026;SDS011;65956;52.986;17.490;2024-02-21T21:37:35;50.30;;;23.30;;
77026;SDS011;65956;52.986;17.490;2024-02-21T21:40:03;33.20;;;15.80;;
77026;SDS011;65956;52.986;17.490;2024-02-21T21:42:33;23.40;;;12.80;;
77026;SDS011;65956;52.986;17.490;2024-02-21T21:45:00;33.50;;;16.30;;
77026;SDS011;65956;52.986;17.490;2024-02-21T21:47:27;31.70;;;14.80;;
77026;SDS011;65956;52.986;17.490;2024-02-21T21:49:53;20.90;;;11.60;;
77026;SDS011;65956;52.986;17.490;2024-02-21T21:52:19;23.60;;;12.00;;
77026;SDS011;65956;52.986;17.490;2024-02-21T21:54:45;20.60;;;11.80;;
77026;SDS011;65956;52.986;17.490;2024-02-21T21:57:11;26.70;;;13.30;;